sensor_id;sensor_type;location;lat;lon;timestamp;P1;durP1;ratioP1;P2;durP2;ratioP2
41289;SDS011;36117;46.680;11.154;2022-10-28T00:02:21;3.05;;;2.00;;
41289;SDS011;36117;46.680;11.154;2022-10-28T00:04:46;4.38;;;1.92;;
41289;SDS011;36117;46.680;11.154;2022-10-28T00:07:12;10.98;;;1.80;;
41289;SDS011;36117;46.680;11.154;2022-10-28T00:09:38;6.05;;;1.90;;
41289;SDS011;36117;46.680;11.154;2022-10-28T00:12:04;6.25;;;2.10;;
41289;SDS011;36117;46.680;11.154;2022-10-28T00:14:30;9.23;;;2.10;;
41289;SDS011;36117;46.680;11.154;2022-10-28T00:16:56;2.22;;;1.45;;
41289;SDS011;36117;46.680;11.154;2022-10-28T00:19:22;5.30;;;1.73;;
41289;SDS011;36117;46.680;11.154;2022-10-28T00:21:48;4.75;;;1.98;;
41289;SDS011;36117;46.680;11.154;2022-10-28T00:24:13;9.05;;;1.90;;
41289;SDS011;36117;46.680;11.154;2022-10-28T00:26:40;7.25;;;2.58;;
41289;SDS011;36117;46.680;11.154;2022-10-28T00:29:08;2.92;;;1.98;;
41289;SDS011;36117;46.680;11.154;2022-10-28T00:31:39;5.68;;;2.05;;
41289;SDS011;36117;46.680;11.154;2022-10-28T00:34:09;6.38;;;2.50;;
41289;SDS011;36117;46.680;11.154;2022-10-28T00:36:38;5.72;;;2.08;;
41289;SDS011;36117;46.680;11.154;2022-10-28T00:41:40;4.45;;;2.50;;
41289;SDS011;36117;46.680;11.154;2022-10-28T00:49:56;5.90;;;1.83;;
41289;SDS011;36117;46.680;11.154;2022-10-28T00:52:27;5.22;;;2.08;;
41289;SDS011;36117;46.680;11.154;2022-10-28T00:54:55;5.50;;;2.35;;
41289;SDS011;36117;46.680;11.154;2022-10-28T00:57:24;11.98;;;2.38;;
41289;SDS011;36117;46.680;11.154;2022-10-28T00:59:54;4.88;;;2.22;;
41289;SDS011;36117;46.680;11.154;2022-10-28T01:02:23;6.07;;;2.08;;
41289;SDS011;36117;46.680;11.154;2022-10-28T01:04:49;6.07;;;2.03;;
41289;SDS011;36117;46.680;11.154;2022-10-28T01:07:15;9.10;;;2.92;;
41289;SDS011;36117;46.680;11.154;2022-10-28T01:09:41;2.65;;;1.67;;
41289;SDS011;36117;46.680;11.154;2022-10-28T01:14:59;10.77;;;3.28;;
41289;SDS011;36117;46.680;11.154;2022-10-28T01:17:50;4.50;;;1.70;;
41289;SDS011;36117;46.680;11.154;2022-10-28T01:20:45;5.00;;;1.98;;
41289;SDS011;36117;46.680;11.154;2022-10-28T01:25:58;9.23;;;2.10;;
41289;SDS011;36117;46.680;11.154;2022-10-28T01:28:39;9.05;;;2.58;;
41289;SDS011;36117;46.680;11.154;2022-10-28T01:33:54;4.15;;;2.10;;
41289;SDS011;36117;46.680;11.154;2022-10-28T01:39:36;7.28;;;1.92;;
41289;SDS011;36117;46.680;11.154;2022-10-28T01:45:45;5.35;;;1.77;;
41289;SDS011;36117;46.680;11.154;2022-10-28T01:48:02;2.60;;;1.92;;
41289;SDS011;36117;46.680;11.154;2022-10-28T01:53:23;7.68;;;2.20;;
41289;SDS011;36117;46.680;11.154;2022-10-28T01:58:22;4.57;;;2.30;;
41289;SDS011;36117;46.680;11.154;2022-10-28T02:00:51;7.17;;;2.70;;
41289;SDS011;36117;46.680;11.154;2022-10-28T02:03:17;5.70;;;2.35;;
41289;SDS011;36117;46.680;11.154;2022-10-28T02:05:47;6.70;;;1.98;;
41289;SDS011;36117;46.680;11.154;2022-10-28T02:08:21;3.90;;;2.08;;
41289;SDS011;36117;46.680;11.154;2022-10-28T02:13:45;8.25;;;2.53;;
41289;SDS011;36117;46.680;11.154;2022-10-28T02:22:24;5.25;;;2.17;;
41289;SDS011;36117;46.680;11.154;2022-10-28T02:25:16;5.35;;;1.92;;
41289;SDS011;36117;46.680;11.154;2022-10-28T02:27:44;6.60;;;2.63;;
41289;SDS011;36117;46.680;11.154;2022-10-28T02:30:17;5.88;;;1.92;;
41289;SDS011;36117;46.680;11.154;2022-10-28T02:32:57;7.60;;;2.28;;
41289;SDS011;36117;46.680;11.154;2022-10-28T02:35:32;8.00;;;2.97;;
41289;SDS011;36117;46.680;11.154;2022-10-28T02:38:06;7.13;;;3.00;;
41289;SDS011;36117;46.680;11.154;2022-10-28T02:40:36;6.88;;;2.20;;
41289;SDS011;36117;46.680;11.154;2022-10-28T02:43:04;5.65;;;1.95;;
41289;SDS011;36117;46.680;11.154;2022-10-28T02:45:52;4.53;;;1.88;;
41289;SDS011;36117;46.680;11.154;2022-10-28T02:50:55;3.88;;;1.98;;
41289;SDS011;36117;46.680;11.154;2022-10-28T02:53:29;5.03;;;1.92;;
41289;SDS011;36117;46.680;11.154;2022-10-28T02:56:01;4.97;;;2.33;;
41289;SDS011;36117;46.680;11.154;2022-10-28T02:58:36;2.60;;;1.67;;
41289;SDS011;36117;46.680;11.154;2022-10-28T03:01:06;7.88;;;2.35;;
41289;SDS011;36117;46.680;11.154;2022-10-28T03:03:32;5.65;;;1.90;;
41289;SDS011;36117;46.680;11.154;2022-10-28T03:05:57;3.90;;;1.67;;
41289;SDS011;36117;46.680;11.154;2022-10-28T03:08:24;5.43;;;1.88;;
41289;SDS011;36117;46.680;11.154;2022-10-28T03:10:49;6.57;;;2.15;;
41289;SDS011;36117;46.680;11.154;2022-10-28T03:13:15;6.43;;;2.20;;
41289;SDS011;36117;46.680;11.154;2022-10-28T03:15:41;6.47;;;1.88;;
41289;SDS011;36117;46.680;11.154;2022-10-28T03:18:07;3.72;;;1.50;;
41289;SDS011;36117;46.680;11.154;2022-10-28T03:20:38;4.40;;;1.58;;
41289;SDS011;36117;46.680;11.154;2022-10-28T03:23:06;2.92;;;1.60;;
41289;SDS011;36117;46.680;11.154;2022-10-28T03:25:32;4.07;;;1.92;;
41289;SDS011;36117;46.680;11.154;2022-10-28T03:27:58;11.65;;;2.15;;
41289;SDS011;36117;46.680;11.154;2022-10-28T03:30:26;6.20;;;2.13;;
41289;SDS011;36117;46.680;11.154;2022-10-28T03:32:52;3.15;;;1.85;;
41289;SDS011;36117;46.680;11.154;2022-10-28T03:35:18;2.90;;;1.73;;
41289;SDS011;36117;46.680;11.154;2022-10-28T03:37:43;2.85;;;1.73;;
41289;SDS011;36117;46.680;11.154;2022-10-28T03:40:10;1.95;;;1.55;;
41289;SDS011;36117;46.680;11.154;2022-10-28T03:42:36;9.20;;;3.20;;
41289;SDS011;36117;46.680;11.154;2022-10-28T03:45:02;8.77;;;4.47;;
41289;SDS011;36117;46.680;11.154;2022-10-28T03:47:29;8.90;;;4.43;;
41289;SDS011;36117;46.680;11.154;2022-10-28T03:49:58;13.63;;;4.22;;
41289;SDS011;36117;46.680;11.154;2022-10-28T03:52:26;9.00;;;3.03;;
41289;SDS011;36117;46.680;11.154;2022-10-28T03:54:51;7.85;;;3.75;;
41289;SDS011;36117;46.680;11.154;2022-10-28T03:57:17;13.05;;;3.38;;
41289;SDS011;36117;46.680;11.154;2022-10-28T03:59:43;3.60;;;1.88;;
41289;SDS011;36117;46.680;11.154;2022-10-28T04:02:08;8.43;;;2.08;;
41289;SDS011;36117;46.680;11.154;2022-10-28T04:04:34;6.05;;;2.65;;
41289;SDS011;36117;46.680;11.154;2022-10-28T04:07:00;3.95;;;1.67;;
41289;SDS011;36117;46.680;11.154;2022-10-28T04:09:26;10.73;;;2.35;;
41289;SDS011;36117;46.680;11.154;2022-10-28T04:11:52;3.65;;;1.90;;
41289;SDS011;36117;46.680;11.154;2022-10-28T04:14:18;3.38;;;1.85;;
41289;SDS011;36117;46.680;11.154;2022-10-28T04:16:44;14.85;;;2.45;;
41289;SDS011;36117;46.680;11.154;2022-10-28T04:19:10;9.98;;;2.40;;
41289;SDS011;36117;46.680;11.154;2022-10-28T04:21:35;11.63;;;2.30;;
41289;SDS011;36117;46.680;11.154;2022-10-28T04:24:01;9.68;;;2.65;;
41289;SDS011;36117;46.680;11.154;2022-10-28T04:26:28;5.72;;;1.67;;
41289;SDS011;36117;46.680;11.154;2022-10-28T04:28:55;2.88;;;1.77;;
41289;SDS011;36117;46.680;11.154;2022-10-28T04:31:21;7.30;;;2.58;;
41289;SDS011;36117;46.680;11.154;2022-10-28T04:33:47;10.38;;;3.10;;
41289;SDS011;36117;46.680;11.154;2022-10-28T04:36:13;4.60;;;2.38;;
41289;SDS011;36117;46.680;11.154;2022-10-28T04:38:39;8.60;;;2.90;;
41289;SDS011;36117;46.680;11.154;2022-10-28T04:41:04;6.22;;;2.75;;
41289;SDS011;36117;46.680;11.154;2022-10-28T04:43:30;10.82;;;3.55;;
41289;SDS011;36117;46.680;11.154;2022-10-28T04:45:56;12.32;;;3.95;;
41289;SDS011;36117;46.680;11.154;2022-10-28T04:48:26;8.98;;;3.05;;
41289;SDS011;36117;46.680;11.154;2022-10-28T04:50:52;8.13;;;3.17;;
41289;SDS011;36117;46.680;11.154;2022-10-28T04:53:20;9.07;;;3.55;;
41289;SDS011;36117;46.680;11.154;2022-10-28T04:55:46;9.35;;;3.85;;
41289;SDS011;36117;46.680;11.154;2022-10-28T04:58:12;6.35;;;3.10;;
41289;SDS011;36117;46.680;11.154;2022-10-28T05:00:37;5.78;;;2.50;;
41289;SDS011;36117;46.680;11.154;2022-10-28T05:03:04;9.60;;;2.80;;
41289;SDS011;36117;46.680;11.154;2022-10-28T05:05:29;10.52;;;2.60;;
41289;SDS011;36117;46.680;11.154;2022-10-28T05:07:55;3.78;;;2.53;;
41289;SDS011;36117;46.680;11.154;2022-10-28T05:10:21;4.15;;;2.30;;
41289;SDS011;36117;46.680;11.154;2022-10-28T05:12:47;6.10;;;1.80;;
41289;SDS011;36117;46.680;11.154;2022-10-28T05:15:13;6.57;;;1.88;;
41289;SDS011;36117;46.680;11.154;2022-10-28T05:17:41;8.18;;;2.60;;
41289;SDS011;36117;46.680;11.154;2022-10-28T05:20:09;7.55;;;2.78;;
41289;SDS011;36117;46.680;11.154;2022-10-28T05:22:36;8.25;;;4.43;;
41289;SDS011;36117;46.680;11.154;2022-10-28T05:25:02;5.95;;;2.80;;
41289;SDS011;36117;46.680;11.154;2022-10-28T05:27:28;9.02;;;3.00;;
41289;SDS011;36117;46.680;11.154;2022-10-28T05:29:54;8.23;;;2.40;;
41289;SDS011;36117;46.680;11.154;2022-10-28T05:32:21;5.25;;;2.50;;
41289;SDS011;36117;46.680;11.154;2022-10-28T05:34:47;6.30;;;2.78;;
41289;SDS011;36117;46.680;11.154;2022-10-28T05:37:12;5.10;;;2.00;;
41289;SDS011;36117;46.680;11.154;2022-10-28T05:39:38;8.38;;;2.53;;
41289;SDS011;36117;46.680;11.154;2022-10-28T05:42:04;6.28;;;2.95;;
41289;SDS011;36117;46.680;11.154;2022-10-28T05:44:29;4.65;;;2.45;;
41289;SDS011;36117;46.680;11.154;2022-10-28T05:46:55;3.58;;;2.05;;
41289;SDS011;36117;46.680;11.154;2022-10-28T05:49:21;6.43;;;2.38;;
41289;SDS011;36117;46.680;11.154;2022-10-28T05:51:47;5.30;;;2.83;;
41289;SDS011;36117;46.680;11.154;2022-10-28T05:54:13;4.85;;;2.63;;
41289;SDS011;36117;46.680;11.154;2022-10-28T05:56:38;12.52;;;2.88;;
41289;SDS011;36117;46.680;11.154;2022-10-28T05:59:04;3.58;;;2.17;;
41289;SDS011;36117;46.680;11.154;2022-10-28T06:01:30;4.30;;;2.95;;
41289;SDS011;36117;46.680;11.154;2022-10-28T06:03:56;6.28;;;2.97;;
41289;SDS011;36117;46.680;11.154;2022-10-28T06:06:22;12.38;;;4.07;;
41289;SDS011;36117;46.680;11.154;2022-10-28T06:08:47;10.95;;;3.13;;
41289;SDS011;36117;46.680;11.154;2022-10-28T06:11:13;7.88;;;3.53;;
41289;SDS011;36117;46.680;11.154;2022-10-28T06:13:39;8.05;;;3.47;;
41289;SDS011;36117;46.680;11.154;2022-10-28T06:16:05;6.75;;;3.10;;
41289;SDS011;36117;46.680;11.154;2022-10-28T06:18:31;8.48;;;2.97;;
41289;SDS011;36117;46.680;11.154;2022-10-28T06:20:58;7.95;;;3.50;;
41289;SDS011;36117;46.680;11.154;2022-10-28T06:23:24;20.27;;;3.90;;
41289;SDS011;36117;46.680;11.154;2022-10-28T06:25:52;6.57;;;3.10;;
41289;SDS011;36117;46.680;11.154;2022-10-28T06:28:22;8.43;;;3.60;;
41289;SDS011;36117;46.680;11.154;2022-10-28T06:30:48;8.43;;;3.60;;
41289;SDS011;36117;46.680;11.154;2022-10-28T06:33:13;8.35;;;3.20;;
41289;SDS011;36117;46.680;11.154;2022-10-28T06:35:39;6.88;;;3.00;;
41289;SDS011;36117;46.680;11.154;2022-10-28T06:38:05;3.20;;;2.08;;
41289;SDS011;36117;46.680;11.154;2022-10-28T06:40:31;14.10;;;2.47;;
41289;SDS011;36117;46.680;11.154;2022-10-28T06:43:00;6.55;;;2.88;;
41289;SDS011;36117;46.680;11.154;2022-10-28T06:45:28;8.57;;;2.92;;
41289;SDS011;36117;46.680;11.154;2022-10-28T06:47:58;10.45;;;4.00;;
41289;SDS011;36117;46.680;11.154;2022-10-28T06:50:26;9.35;;;3.17;;
41289;SDS011;36117;46.680;11.154;2022-10-28T06:52:56;9.77;;;2.55;;
41289;SDS011;36117;46.680;11.154;2022-10-28T06:55:22;6.07;;;2.40;;
41289;SDS011;36117;46.680;11.154;2022-10-28T06:57:51;6.07;;;2.10;;
41289;SDS011;36117;46.680;11.154;2022-10-28T07:00:18;7.82;;;3.08;;
41289;SDS011;36117;46.680;11.154;2022-10-28T07:02:44;5.25;;;3.08;;
41289;SDS011;36117;46.680;11.154;2022-10-28T07:05:14;4.60;;;3.00;;
41289;SDS011;36117;46.680;11.154;2022-10-28T07:07:40;18.05;;;3.20;;
41289;SDS011;36117;46.680;11.154;2022-10-28T07:10:05;13.23;;;3.45;;
41289;SDS011;36117;46.680;11.154;2022-10-28T07:12:31;6.65;;;2.67;;
41289;SDS011;36117;46.680;11.154;2022-10-28T07:14:57;9.13;;;2.67;;
41289;SDS011;36117;46.680;11.154;2022-10-28T07:17:23;6.63;;;2.55;;
41289;SDS011;36117;46.680;11.154;2022-10-28T07:19:49;5.05;;;2.53;;
41289;SDS011;36117;46.680;11.154;2022-10-28T07:22:14;5.85;;;2.63;;
41289;SDS011;36117;46.680;11.154;2022-10-28T07:24:40;11.07;;;3.42;;
41289;SDS011;36117;46.680;11.154;2022-10-28T07:27:07;8.77;;;2.90;;
41289;SDS011;36117;46.680;11.154;2022-10-28T07:29:33;8.95;;;2.28;;
41289;SDS011;36117;46.680;11.154;2022-10-28T07:31:59;6.28;;;2.10;;
41289;SDS011;36117;46.680;11.154;2022-10-28T07:34:24;6.18;;;1.63;;
41289;SDS011;36117;46.680;11.154;2022-10-28T07:36:51;5.90;;;2.20;;
41289;SDS011;36117;46.680;11.154;2022-10-28T07:39:18;7.53;;;2.67;;
41289;SDS011;36117;46.680;11.154;2022-10-28T07:41:44;9.80;;;2.78;;
41289;SDS011;36117;46.680;11.154;2022-10-28T07:44:10;7.15;;;3.95;;
41289;SDS011;36117;46.680;11.154;2022-10-28T07:46:37;5.38;;;2.42;;
41289;SDS011;36117;46.680;11.154;2022-10-28T07:49:02;9.85;;;3.08;;
41289;SDS011;36117;46.680;11.154;2022-10-28T07:51:28;5.25;;;2.10;;
41289;SDS011;36117;46.680;11.154;2022-10-28T07:53:54;5.25;;;2.22;;
41289;SDS011;36117;46.680;11.154;2022-10-28T07:56:21;5.35;;;2.42;;
41289;SDS011;36117;46.680;11.154;2022-10-28T07:58:47;16.63;;;3.55;;
41289;SDS011;36117;46.680;11.154;2022-10-28T08:01:14;8.57;;;2.03;;
41289;SDS011;36117;46.680;11.154;2022-10-28T08:03:41;16.17;;;2.55;;
41289;SDS011;36117;46.680;11.154;2022-10-28T08:06:11;3.38;;;1.58;;
41289;SDS011;36117;46.680;11.154;2022-10-28T08:08:42;4.65;;;2.17;;
41289;SDS011;36117;46.680;11.154;2022-10-28T08:11:11;4.78;;;2.60;;
41289;SDS011;36117;46.680;11.154;2022-10-28T08:13:38;4.82;;;2.03;;
41289;SDS011;36117;46.680;11.154;2022-10-28T08:16:04;4.53;;;2.00;;
41289;SDS011;36117;46.680;11.154;2022-10-28T08:18:30;2.65;;;1.58;;
41289;SDS011;36117;46.680;11.154;2022-10-28T08:21:13;4.43;;;2.47;;
41289;SDS011;36117;46.680;11.154;2022-10-28T08:23:40;4.57;;;1.80;;
41289;SDS011;36117;46.680;11.154;2022-10-28T08:26:10;3.92;;;1.50;;
41289;SDS011;36117;46.680;11.154;2022-10-28T08:28:37;9.02;;;2.05;;
41289;SDS011;36117;46.680;11.154;2022-10-28T08:31:04;5.82;;;2.13;;
41289;SDS011;36117;46.680;11.154;2022-10-28T08:33:34;6.00;;;1.85;;
41289;SDS011;36117;46.680;11.154;2022-10-28T08:36:02;12.38;;;2.75;;
41289;SDS011;36117;46.680;11.154;2022-10-28T08:38:28;10.75;;;4.72;;
41289;SDS011;36117;46.680;11.154;2022-10-28T08:47:09;4.18;;;1.90;;
41289;SDS011;36117;46.680;11.154;2022-10-28T08:49:44;5.65;;;2.22;;
41289;SDS011;36117;46.680;11.154;2022-10-28T08:54:53;2.25;;;1.40;;
41289;SDS011;36117;46.680;11.154;2022-10-28T09:00:07;5.63;;;2.10;;
41289;SDS011;36117;46.680;11.154;2022-10-28T09:02:49;4.00;;;1.27;;
41289;SDS011;36117;46.680;11.154;2022-10-28T09:05:35;6.18;;;2.75;;
41289;SDS011;36117;46.680;11.154;2022-10-28T09:08:01;7.95;;;2.70;;
41289;SDS011;36117;46.680;11.154;2022-10-28T09:10:38;4.85;;;1.90;;
41289;SDS011;36117;46.680;11.154;2022-10-28T09:18:19;8.25;;;1.73;;
41289;SDS011;36117;46.680;11.154;2022-10-28T09:23:21;3.35;;;1.35;;
41289;SDS011;36117;46.680;11.154;2022-10-28T09:25:58;4.30;;;1.45;;
41289;SDS011;36117;46.680;11.154;2022-10-28T09:28:43;7.45;;;4.60;;
41289;SDS011;36117;46.680;11.154;2022-10-28T09:31:29;13.80;;;3.50;;
41289;SDS011;36117;46.680;11.154;2022-10-28T09:36:56;2.40;;;1.83;;
41289;SDS011;36117;46.680;11.154;2022-10-28T09:39:30;8.45;;;4.60;;
41289;SDS011;36117;46.680;11.154;2022-10-28T09:42:05;9.52;;;2.53;;
41289;SDS011;36117;46.680;11.154;2022-10-28T09:47:31;6.93;;;3.28;;
41289;SDS011;36117;46.680;11.154;2022-10-28T09:50:14;6.03;;;2.03;;
41289;SDS011;36117;46.680;11.154;2022-10-28T09:52:51;7.35;;;2.45;;
41289;SDS011;36117;46.680;11.154;2022-10-28T09:55:33;3.88;;;1.55;;
41289;SDS011;36117;46.680;11.154;2022-10-28T09:58:01;4.00;;;1.40;;
41289;SDS011;36117;46.680;11.154;2022-10-28T10:00:28;4.22;;;1.17;;
41289;SDS011;36117;46.680;11.154;2022-10-28T10:02:55;4.90;;;1.88;;
41289;SDS011;36117;46.680;11.154;2022-10-28T10:05:22;5.35;;;3.28;;
41289;SDS011;36117;46.680;11.154;2022-10-28T10:10:22;3.45;;;1.40;;
41289;SDS011;36117;46.680;11.154;2022-10-28T10:12:56;5.28;;;1.33;;
41289;SDS011;36117;46.680;11.154;2022-10-28T10:15:29;2.25;;;1.00;;
41289;SDS011;36117;46.680;11.154;2022-10-28T10:18:16;1.73;;;1.15;;
41289;SDS011;36117;46.680;11.154;2022-10-28T10:20:51;3.28;;;1.35;;
41289;SDS011;36117;46.680;11.154;2022-10-28T10:23:27;3.75;;;1.23;;
41289;SDS011;36117;46.680;11.154;2022-10-28T10:28:47;6.45;;;1.92;;
41289;SDS011;36117;46.680;11.154;2022-10-28T10:31:16;3.72;;;1.33;;
41289;SDS011;36117;46.680;11.154;2022-10-28T10:33:48;1.40;;;0.90;;
41289;SDS011;36117;46.680;11.154;2022-10-28T10:36:16;3.15;;;1.63;;
41289;SDS011;36117;46.680;11.154;2022-10-28T10:38:51;4.20;;;1.40;;
41289;SDS011;36117;46.680;11.154;2022-10-28T10:41:35;3.38;;;1.27;;
41289;SDS011;36117;46.680;11.154;2022-10-28T10:44:23;3.40;;;1.55;;
41289;SDS011;36117;46.680;11.154;2022-10-28T10:49:24;4.15;;;2.25;;
41289;SDS011;36117;46.680;11.154;2022-10-28T10:51:54;5.77;;;1.83;;
41289;SDS011;36117;46.680;11.154;2022-10-28T10:54:22;5.05;;;1.77;;
41289;SDS011;36117;46.680;11.154;2022-10-28T10:56:50;4.43;;;2.03;;
41289;SDS011;36117;46.680;11.154;2022-10-28T10:59:23;3.67;;;1.98;;
41289;SDS011;36117;46.680;11.154;2022-10-28T11:01:52;6.72;;;1.90;;
41289;SDS011;36117;46.680;11.154;2022-10-28T11:04:20;3.72;;;1.70;;
41289;SDS011;36117;46.680;11.154;2022-10-28T11:06:49;4.55;;;1.30;;
41289;SDS011;36117;46.680;11.154;2022-10-28T11:09:19;7.07;;;2.22;;
41289;SDS011;36117;46.680;11.154;2022-10-28T11:14:21;4.35;;;1.73;;
41289;SDS011;36117;46.680;11.154;2022-10-28T11:17:01;7.13;;;3.17;;
41289;SDS011;36117;46.680;11.154;2022-10-28T11:27:47;9.55;;;2.15;;
41289;SDS011;36117;46.680;11.154;2022-10-28T11:30:28;6.05;;;2.30;;
41289;SDS011;36117;46.680;11.154;2022-10-28T11:33:17;3.33;;;1.70;;
41289;SDS011;36117;46.680;11.154;2022-10-28T11:43:47;5.18;;;1.67;;
41289;SDS011;36117;46.680;11.154;2022-10-28T11:49:27;7.18;;;1.70;;
41289;SDS011;36117;46.680;11.154;2022-10-28T11:54:34;4.68;;;1.40;;
41289;SDS011;36117;46.680;11.154;2022-10-28T11:57:13;2.88;;;1.95;;
41289;SDS011;36117;46.680;11.154;2022-10-28T12:13:48;3.65;;;1.88;;
41289;SDS011;36117;46.680;11.154;2022-10-28T12:21:32;4.70;;;1.90;;
41289;SDS011;36117;46.680;11.154;2022-10-28T12:24:14;7.28;;;2.35;;
41289;SDS011;36117;46.680;11.154;2022-10-28T12:26:46;12.57;;;2.28;;
41289;SDS011;36117;46.680;11.154;2022-10-28T12:32:06;8.32;;;2.72;;
41289;SDS011;36117;46.680;11.154;2022-10-28T12:34:46;3.38;;;1.83;;
41289;SDS011;36117;46.680;11.154;2022-10-28T12:37:24;8.63;;;3.72;;
41289;SDS011;36117;46.680;11.154;2022-10-28T12:42:52;6.72;;;3.58;;
41289;SDS011;36117;46.680;11.154;2022-10-28T12:45:23;5.60;;;2.05;;
41289;SDS011;36117;46.680;11.154;2022-10-28T12:48:02;6.72;;;2.88;;
41289;SDS011;36117;46.680;11.154;2022-10-28T12:50:39;8.25;;;2.63;;
41289;SDS011;36117;46.680;11.154;2022-10-28T12:53:35;5.80;;;2.73;;
41289;SDS011;36117;46.680;11.154;2022-10-28T12:56:13;8.70;;;3.03;;
41289;SDS011;36117;46.680;11.154;2022-10-28T12:59:00;8.32;;;3.30;;
41289;SDS011;36117;46.680;11.154;2022-10-28T13:01:42;5.10;;;1.45;;
41289;SDS011;36117;46.680;11.154;2022-10-28T13:04:11;9.10;;;2.70;;
41289;SDS011;36117;46.680;11.154;2022-10-28T13:09:22;5.85;;;2.80;;
41289;SDS011;36117;46.680;11.154;2022-10-28T13:20:45;3.65;;;2.10;;
41289;SDS011;36117;46.680;11.154;2022-10-28T13:26:24;3.33;;;1.67;;
41289;SDS011;36117;46.680;11.154;2022-10-28T13:28:59;19.73;;;2.00;;
41289;SDS011;36117;46.680;11.154;2022-10-28T13:31:44;3.28;;;1.67;;
41289;SDS011;36117;46.680;11.154;2022-10-28T13:34:11;4.22;;;2.03;;
41289;SDS011;36117;46.680;11.154;2022-10-28T13:36:40;5.07;;;2.03;;
41289;SDS011;36117;46.680;11.154;2022-10-28T13:39:23;5.70;;;2.13;;
41289;SDS011;36117;46.680;11.154;2022-10-28T13:44:58;8.57;;;2.72;;
41289;SDS011;36117;46.680;11.154;2022-10-28T13:50:35;4.85;;;2.35;;
41289;SDS011;36117;46.680;11.154;2022-10-28T13:56:01;2.67;;;1.58;;
41289;SDS011;36117;46.680;11.154;2022-10-28T13:59:16;5.22;;;1.70;;
41289;SDS011;36117;46.680;11.154;2022-10-28T14:01:38;1.67;;;1.55;;
41289;SDS011;36117;46.680;11.154;2022-10-28T14:07:01;8.18;;;2.70;;
41289;SDS011;36117;46.680;11.154;2022-10-28T14:09:41;6.97;;;2.17;;
41289;SDS011;36117;46.680;11.154;2022-10-28T14:15:02;4.78;;;2.75;;
41289;SDS011;36117;46.680;11.154;2022-10-28T14:17:33;9.57;;;3.72;;
41289;SDS011;36117;46.680;11.154;2022-10-28T14:20:03;9.35;;;2.72;;
41289;SDS011;36117;46.680;11.154;2022-10-28T14:22:46;8.27;;;3.08;;
41289;SDS011;36117;46.680;11.154;2022-10-28T14:41:57;12.65;;;2.75;;
41289;SDS011;36117;46.680;11.154;2022-10-28T14:44:57;11.82;;;3.10;;
41289;SDS011;36117;46.680;11.154;2022-10-28T14:50:20;7.20;;;2.33;;
41289;SDS011;36117;46.680;11.154;2022-10-28T14:52:49;7.10;;;2.75;;
41289;SDS011;36117;46.680;11.154;2022-10-28T14:55:24;11.48;;;2.95;;
41289;SDS011;36117;46.680;11.154;2022-10-28T14:57:51;7.15;;;2.50;;
41289;SDS011;36117;46.680;11.154;2022-10-28T15:00:22;5.97;;;2.63;;
41289;SDS011;36117;46.680;11.154;2022-10-28T15:02:50;6.50;;;2.42;;
41289;SDS011;36117;46.680;11.154;2022-10-28T15:05:16;6.18;;;3.63;;
41289;SDS011;36117;46.680;11.154;2022-10-28T15:07:49;10.80;;;2.67;;
41289;SDS011;36117;46.680;11.154;2022-10-28T15:10:17;10.57;;;2.40;;
41289;SDS011;36117;46.680;11.154;2022-10-28T15:12:46;9.43;;;2.90;;
41289;SDS011;36117;46.680;11.154;2022-10-28T15:15:17;5.47;;;2.67;;
41289;SDS011;36117;46.680;11.154;2022-10-28T15:17:45;5.90;;;3.03;;
41289;SDS011;36117;46.680;11.154;2022-10-28T15:20:27;6.65;;;2.92;;
41289;SDS011;36117;46.680;11.154;2022-10-28T15:23:12;9.40;;;2.80;;
41289;SDS011;36117;46.680;11.154;2022-10-28T15:28:35;7.45;;;3.30;;
41289;SDS011;36117;46.680;11.154;2022-10-28T15:31:02;6.43;;;3.30;;
41289;SDS011;36117;46.680;11.154;2022-10-28T15:33:35;6.28;;;2.85;;
41289;SDS011;36117;46.680;11.154;2022-10-28T15:36:05;17.67;;;3.38;;
41289;SDS011;36117;46.680;11.154;2022-10-28T15:38:36;8.27;;;3.93;;
41289;SDS011;36117;46.680;11.154;2022-10-28T15:44:00;5.70;;;3.80;;
41289;SDS011;36117;46.680;11.154;2022-10-28T15:46:27;10.15;;;3.67;;
41289;SDS011;36117;46.680;11.154;2022-10-28T15:48:59;8.68;;;3.38;;
41289;SDS011;36117;46.680;11.154;2022-10-28T15:51:25;6.97;;;3.73;;
41289;SDS011;36117;46.680;11.154;2022-10-28T15:53:52;9.23;;;2.58;;
41289;SDS011;36117;46.680;11.154;2022-10-28T15:56:33;6.63;;;3.35;;
41289;SDS011;36117;46.680;11.154;2022-10-28T15:59:22;12.30;;;2.60;;
41289;SDS011;36117;46.680;11.154;2022-10-28T16:01:49;5.43;;;2.90;;
41289;SDS011;36117;46.680;11.154;2022-10-28T16:06:51;10.18;;;3.20;;
41289;SDS011;36117;46.680;11.154;2022-10-28T16:09:29;7.93;;;2.80;;
41289;SDS011;36117;46.680;11.154;2022-10-28T16:11:57;9.57;;;2.75;;
41289;SDS011;36117;46.680;11.154;2022-10-28T16:14:36;8.82;;;3.92;;
41289;SDS011;36117;46.680;11.154;2022-10-28T16:17:21;22.33;;;3.37;;
41289;SDS011;36117;46.680;11.154;2022-10-28T16:19:56;6.05;;;2.78;;
41289;SDS011;36117;46.680;11.154;2022-10-28T16:22:23;11.43;;;3.30;;
41289;SDS011;36117;46.680;11.154;2022-10-28T16:24:52;9.30;;;4.72;;
41289;SDS011;36117;46.680;11.154;2022-10-28T16:29:51;12.57;;;4.28;;
41289;SDS011;36117;46.680;11.154;2022-10-28T16:32:27;13.80;;;6.18;;
41289;SDS011;36117;46.680;11.154;2022-10-28T16:34:56;15.80;;;7.43;;
41289;SDS011;36117;46.680;11.154;2022-10-28T16:37:23;11.00;;;6.35;;
41289;SDS011;36117;46.680;11.154;2022-10-28T16:39:51;69.82;;;33.80;;
41289;SDS011;36117;46.680;11.154;2022-10-28T16:42:18;41.60;;;19.58;;
41289;SDS011;36117;46.680;11.154;2022-10-28T16:44:45;16.67;;;7.38;;
41289;SDS011;36117;46.680;11.154;2022-10-28T16:47:11;12.00;;;5.88;;
41289;SDS011;36117;46.680;11.154;2022-10-28T16:49:39;15.55;;;4.93;;
41289;SDS011;36117;46.680;11.154;2022-10-28T16:52:06;18.33;;;8.15;;
41289;SDS011;36117;46.680;11.154;2022-10-28T16:54:40;16.42;;;7.88;;
41289;SDS011;36117;46.680;11.154;2022-10-28T16:57:05;12.90;;;6.05;;
41289;SDS011;36117;46.680;11.154;2022-10-28T16:59:31;17.00;;;6.10;;
41289;SDS011;36117;46.680;11.154;2022-10-28T17:01:57;14.90;;;5.30;;
41289;SDS011;36117;46.680;11.154;2022-10-28T17:04:24;19.90;;;6.28;;
41289;SDS011;36117;46.680;11.154;2022-10-28T17:06:50;17.30;;;6.68;;
41289;SDS011;36117;46.680;11.154;2022-10-28T17:09:16;15.95;;;6.53;;
41289;SDS011;36117;46.680;11.154;2022-10-28T17:11:42;18.42;;;6.90;;
41289;SDS011;36117;46.680;11.154;2022-10-28T17:14:08;19.33;;;6.88;;
41289;SDS011;36117;46.680;11.154;2022-10-28T17:16:33;20.45;;;6.53;;
41289;SDS011;36117;46.680;11.154;2022-10-28T17:19:00;17.70;;;7.38;;
41289;SDS011;36117;46.680;11.154;2022-10-28T17:21:26;16.67;;;5.80;;
41289;SDS011;36117;46.680;11.154;2022-10-28T17:23:51;10.65;;;5.38;;
41289;SDS011;36117;46.680;11.154;2022-10-28T17:26:18;11.45;;;5.25;;
41289;SDS011;36117;46.680;11.154;2022-10-28T17:28:43;13.40;;;4.85;;
41289;SDS011;36117;46.680;11.154;2022-10-28T17:31:14;11.40;;;5.50;;
41289;SDS011;36117;46.680;11.154;2022-10-28T17:33:40;9.27;;;4.40;;
41289;SDS011;36117;46.680;11.154;2022-10-28T17:36:06;15.43;;;5.65;;
41289;SDS011;36117;46.680;11.154;2022-10-28T17:38:32;14.90;;;6.68;;
41289;SDS011;36117;46.680;11.154;2022-10-28T17:40:59;25.65;;;8.85;;
41289;SDS011;36117;46.680;11.154;2022-10-28T17:43:25;13.02;;;6.85;;
41289;SDS011;36117;46.680;11.154;2022-10-28T17:45:50;16.63;;;7.50;;
41289;SDS011;36117;46.680;11.154;2022-10-28T17:48:16;17.33;;;7.68;;
41289;SDS011;36117;46.680;11.154;2022-10-28T17:50:42;17.30;;;7.00;;